createdAt,value
2019-03-23T00:03:50.812Z,29.13
2019-03-23T00:08:57.388Z,27.50
2019-03-23T00:14:04.911Z,27.67
2019-03-23T00:19:11.553Z,24.37
2019-03-23T00:24:18.198Z,25.27
2019-03-23T00:29:24.693Z,25.23
2019-03-23T00:34:31.229Z,22.70
2019-03-23T00:39:37.931Z,21.37
2019-03-23T00:44:44.542Z,22.57
2019-03-23T00:49:51.196Z,21.87
2019-03-23T00:54:57.781Z,22.70
2019-03-23T01:00:04.699Z,28.07
2019-03-23T01:05:11.721Z,22.43
2019-03-23T01:10:18.268Z,25.10
2019-03-23T01:15:24.882Z,21.53
2019-03-23T01:20:31.540Z,22.03
2019-03-23T01:25:38.380Z,21.53
2019-03-23T01:30:45.016Z,22.37
2019-03-23T01:35:51.623Z,24.20
2019-03-23T01:40:58.184Z,24.07
2019-03-23T01:46:04.958Z,19.63
2019-03-23T01:51:11.598Z,21.47
2019-03-23T01:56:18.255Z,20.07
2019-03-23T02:01:25.789Z,21.23
2019-03-23T02:06:32.479Z,20.30
2019-03-23T02:11:39.051Z,18.40
2019-03-23T02:16:45.657Z,20.53
2019-03-23T02:21:52.246Z,21.83
2019-03-23T02:26:58.881Z,21.40
2019-03-23T02:32:05.399Z,21.17
2019-03-23T02:37:12.073Z,18.77
2019-03-23T02:42:19.095Z,21.23
2019-03-23T02:47:25.694Z,21.67
2019-03-23T02:52:32.265Z,19.83
2019-03-23T02:57:38.835Z,18.97
2019-03-23T03:02:45.570Z,23.17
2019-03-23T03:07:52.218Z,23.27
2019-03-23T03:12:58.884Z,21.70
2019-03-23T03:18:05.598Z,19.33
2019-03-23T03:23:12.318Z,21.33
2019-03-23T03:28:18.926Z,18.73
2019-03-23T03:33:25.553Z,21.00
2019-03-23T03:38:32.169Z,21.50
2019-03-23T03:43:38.817Z,20.20
2019-03-23T03:48:45.353Z,22.13
2019-03-23T03:53:51.828Z,24.27
2019-03-23T03:58:58.527Z,20.30
2019-03-23T04:04:05.188Z,22.73
2019-03-23T04:09:11.700Z,20.10
2019-03-23T04:14:18.195Z,21.23
2019-03-23T04:19:24.755Z,23.50
2019-03-23T04:24:31.342Z,19.90
2019-03-23T04:29:37.994Z,21.43
2019-03-23T04:34:44.551Z,20.27
2019-03-23T04:39:51.203Z,23.53
2019-03-23T04:44:58.826Z,22.43
2019-03-23T04:50:05.878Z,19.63
2019-03-23T04:55:13.063Z,21.17
2019-03-23T05:00:20.348Z,22.97
2019-03-23T05:05:26.933Z,18.43
2019-03-23T05:10:33.566Z,17.90
2019-03-23T05:15:40.107Z,21.07
2019-03-23T05:20:46.671Z,19.20
2019-03-23T05:25:53.368Z,22.13
2019-03-23T05:31:00.028Z,19.27
2019-03-23T05:36:06.671Z,24.30
2019-03-23T05:41:13.255Z,25.63
2019-03-23T05:46:20.875Z,19.37
2019-03-23T05:51:27.526Z,19.33
2019-03-23T05:56:34.104Z,21.73
2019-03-23T06:01:40.671Z,20.37
2019-03-23T06:06:47.186Z,20.93
2019-03-23T06:11:53.814Z,23.83
2019-03-23T06:17:00.460Z,22.67
2019-03-23T06:22:06.933Z,18.93
2019-03-23T06:27:13.519Z,21.10
2019-03-23T06:32:20.839Z,38.93
2019-03-23T06:37:27.516Z,26.23
2019-03-23T06:42:34.219Z,18.03
2019-03-23T06:47:40.791Z,15.23
2019-03-23T06:52:47.460Z,18.83
2019-03-23T06:57:53.967Z,20.27
2019-03-23T07:03:00.624Z,22.67
2019-03-23T07:08:07.258Z,21.93
2019-03-23T07:13:13.897Z,22.57
2019-03-23T07:18:20.521Z,18.87
2019-03-23T07:23:27.063Z,18.27
2019-03-23T07:28:33.673Z,17.67
2019-03-23T07:33:40.125Z,19.70
2019-03-23T07:38:46.602Z,17.85
2019-03-23T07:43:53.041Z,15.23
2019-03-23T07:48:59.641Z,14.37
2019-03-23T07:54:06.290Z,13.40
2019-03-23T07:59:12.991Z,11.27
2019-03-23T08:04:19.620Z,10.83
2019-03-23T08:09:37.406Z,6.23
2019-03-23T08:14:36.302Z,6.93
2019-03-23T08:19:43.024Z,6.50
2019-03-23T08:24:49.694Z,6.60
2019-03-23T08:29:56.422Z,8.83
2019-03-23T08:35:03.088Z,5.93
2019-03-23T08:40:09.752Z,7.40
2019-03-23T08:45:17.518Z,5.93
2019-03-23T08:50:24.126Z,8.17
2019-03-23T08:55:30.788Z,9.27
2019-03-23T09:00:37.356Z,7.37
2019-03-23T09:05:44.050Z,8.77
2019-03-23T09:10:51.697Z,7.10
2019-03-23T09:15:58.172Z,10.30
2019-03-23T09:21:04.770Z,5.60
2019-03-23T09:26:13.587Z,7.23
2019-03-23T09:31:19.430Z,7.93
2019-03-23T09:36:26.143Z,8.10
2019-03-23T09:41:33.644Z,10.48
2019-03-23T09:46:40.116Z,9.98
2019-03-23T09:51:46.644Z,12.58
2019-03-23T09:56:53.284Z,9.35
2019-03-23T10:01:59.959Z,10.45
2019-03-23T10:07:06.437Z,9.75
2019-03-23T10:12:13.063Z,11.53
2019-03-23T10:17:19.672Z,11.30
2019-03-23T10:22:26.246Z,9.98
2019-03-23T10:27:32.861Z,10.82
2019-03-23T10:32:39.491Z,12.07
2019-03-23T10:37:46.114Z,13.13
2019-03-23T10:42:52.623Z,13.18
2019-03-23T10:47:59.175Z,13.18
2019-03-23T10:53:05.775Z,14.25
2019-03-23T10:58:12.432Z,18.17
2019-03-23T11:03:19.056Z,15.60
2019-03-23T11:08:25.731Z,15.20
2019-03-23T11:13:32.329Z,14.07
2019-03-23T11:18:38.876Z,16.00
2019-03-23T11:23:45.631Z,13.80
2019-03-23T11:28:52.319Z,29.02
2019-03-23T11:33:58.979Z,12.58
2019-03-23T11:39:08.230Z,16.87
2019-03-23T11:44:14.835Z,12.60
2019-03-23T11:49:21.414Z,11.30
2019-03-23T11:54:27.884Z,14.23
2019-03-23T11:59:34.449Z,17.23
2019-03-23T12:04:41.167Z,13.50
2019-03-23T12:09:47.636Z,12.47
2019-03-23T12:14:54.219Z,12.25
2019-03-23T12:20:00.812Z,11.70
2019-03-23T12:25:07.724Z,12.93
2019-03-23T12:30:16.226Z,17.45
2019-03-23T12:35:23.773Z,16.20
2019-03-23T12:40:30.442Z,18.10
2019-03-23T12:45:38.823Z,19.52
2019-03-23T12:50:45.261Z,18.07
2019-03-23T12:55:51.957Z,21.05
2019-03-23T13:00:58.628Z,17.67
2019-03-23T13:06:05.233Z,20.75
2019-03-23T13:11:11.835Z,20.77
2019-03-23T13:16:18.401Z,19.05
2019-03-23T13:21:25.031Z,19.07
2019-03-23T13:26:31.461Z,20.57
2019-03-23T13:31:39.070Z,20.30
2019-03-23T13:36:45.694Z,21.62
2019-03-23T13:41:52.786Z,22.17
2019-03-23T13:46:59.464Z,24.15
2019-03-23T13:52:06.038Z,24.55
2019-03-23T13:57:12.697Z,24.82
2019-03-23T14:02:19.340Z,22.30
2019-03-23T14:07:25.995Z,23.37
2019-03-23T14:12:32.503Z,21.57
2019-03-23T14:17:39.089Z,24.00
2019-03-23T14:22:45.535Z,21.57
2019-03-23T14:27:52.183Z,21.00
2019-03-23T14:32:58.739Z,20.93
2019-03-23T14:38:05.415Z,25.57
2019-03-23T14:43:12.025Z,21.20
2019-03-23T14:48:18.630Z,23.47
2019-03-23T14:53:25.225Z,20.40
2019-03-23T14:58:31.871Z,23.27
2019-03-23T15:03:38.464Z,24.90
2019-03-23T15:08:45.176Z,27.73
2019-03-23T15:13:51.836Z,39.53
2019-03-23T15:18:58.659Z,52.00
2019-03-23T15:24:05.452Z,53.37
2019-03-23T15:29:12.077Z,55.03
2019-03-23T15:34:18.695Z,38.33
2019-03-23T15:39:25.392Z,36.70
2019-03-23T15:44:32.210Z,38.93
2019-03-23T15:49:38.882Z,29.60
2019-03-23T15:54:45.345Z,31.47
2019-03-23T15:59:51.937Z,28.90
2019-03-23T16:04:59.688Z,33.30
2019-03-23T16:10:06.655Z,30.67
2019-03-23T16:15:14.659Z,28.20
2019-03-23T16:20:21.268Z,29.40
2019-03-23T16:25:27.938Z,30.27
2019-03-23T16:30:35.046Z,32.60
2019-03-23T16:35:41.641Z,32.77
2019-03-23T16:40:48.301Z,35.00
2019-03-23T16:45:54.806Z,38.27
2019-03-23T16:51:01.600Z,41.57
2019-03-23T16:56:08.276Z,61.87
2019-03-23T17:01:14.861Z,58.03
2019-03-23T17:06:21.585Z,71.47
2019-03-23T17:11:28.286Z,72.77
2019-03-23T17:16:35.992Z,78.60
2019-03-23T17:21:42.590Z,77.77
2019-03-23T17:26:49.239Z,81.03
2019-03-23T17:31:57.144Z,80.97
2019-03-23T17:37:03.636Z,82.83
2019-03-23T17:42:11.455Z,79.30
2019-03-23T17:47:18.045Z,78.27
2019-03-23T17:52:24.609Z,77.60
2019-03-23T17:57:31.292Z,74.80
2019-03-23T18:02:38.039Z,80.93
2019-03-23T18:07:45.725Z,75.97
2019-03-23T18:12:52.293Z,72.83
2019-03-23T18:17:59.008Z,75.40
2019-03-23T18:23:05.915Z,73.47
2019-03-23T18:28:12.509Z,74.60
2019-03-23T18:33:19.176Z,67.63
2019-03-23T18:38:25.749Z,62.93
2019-03-23T18:43:32.447Z,63.70
2019-03-23T18:48:39.044Z,57.80
2019-03-23T18:53:45.742Z,59.70
2019-03-23T18:58:52.356Z,63.60
2019-03-23T19:03:58.930Z,70.70
2019-03-23T19:09:07.206Z,60.97
2019-03-23T19:14:13.952Z,58.17
2019-03-23T19:19:20.681Z,59.63
2019-03-23T19:24:27.299Z,56.40
2019-03-23T19:29:33.869Z,60.13
2019-03-23T19:34:40.397Z,56.43
2019-03-23T19:39:47.044Z,58.47
2019-03-23T19:44:53.537Z,60.23
2019-03-23T19:50:00.338Z,59.87
2019-03-23T19:55:06.909Z,56.33
2019-03-23T20:00:13.701Z,59.10
2019-03-23T20:05:20.307Z,57.60
2019-03-23T20:10:26.986Z,57.17
2019-03-23T20:15:33.589Z,66.67
2019-03-23T20:20:40.237Z,61.20
2019-03-23T20:25:46.968Z,59.43
2019-03-23T20:30:53.622Z,59.30
2019-03-23T20:36:00.158Z,60.23
2019-03-23T20:41:06.805Z,60.87
2019-03-23T20:46:13.438Z,56.77
2019-03-23T20:51:20.379Z,56.47
2019-03-23T20:56:27.029Z,56.47
2019-03-23T21:01:33.553Z,59.70
2019-03-23T21:06:40.143Z,59.47
2019-03-23T21:11:46.640Z,62.60
2019-03-23T21:16:53.232Z,59.07
2019-03-23T21:21:59.997Z,62.60
2019-03-23T21:27:06.498Z,65.77
2019-03-23T21:32:13.179Z,58.43
2019-03-23T21:37:19.662Z,58.73
2019-03-23T21:42:26.372Z,60.43
2019-03-23T21:47:32.987Z,61.80
2019-03-23T21:52:39.639Z,70.67
2019-03-23T21:57:46.479Z,66.17
2019-03-23T22:02:53.261Z,66.40
2019-03-23T22:07:59.740Z,59.47
2019-03-23T22:13:07.477Z,63.20
2019-03-23T22:18:14.026Z,64.60
2019-03-23T22:23:20.718Z,62.77
2019-03-23T22:28:27.421Z,61.90
2019-03-23T22:33:34.864Z,63.40
2019-03-23T22:38:41.590Z,65.93
2019-03-23T22:43:48.272Z,59.03
2019-03-23T22:48:54.980Z,61.47
2019-03-23T22:54:01.622Z,62.40
2019-03-23T22:59:08.226Z,67.23
2019-03-23T23:04:14.801Z,63.43
2019-03-23T23:09:21.207Z,63.43
2019-03-23T23:14:27.801Z,61.47
2019-03-23T23:19:34.472Z,67.33
2019-03-23T23:24:40.941Z,66.27
2019-03-23T23:29:47.661Z,67.67
2019-03-23T23:34:54.252Z,66.03
2019-03-23T23:40:00.720Z,65.03
2019-03-23T23:45:15.295Z,67.33
2019-03-23T23:50:16.658Z,62.23
2019-03-23T23:55:23.248Z,68.97
